Time;durP1;ratioP1;P1;durP2;ratioP2;P2;SDS_P1;SDS_P2;PMS_P1;PMS_P2;Temp;Humidity;BMP_temperature;BMP_pressure;BME280_temperature;BME280_humidity;BME280_pressure;Samples;Min_cycle;Max_cycle;Signal;HPM_P1;HPM_P2
2023/10/19 00:00:51;;;;;;;25.90;23.00;;;;;;;3.55;90.08;97253.29;106755;1282;23052;-82
2023/10/19 00:03:33;;;;;;;27.20;24.60;;;;;;;3.51;90.45;97245.89;106733;1282;22520;-82
2023/10/19 00:06:02;;;;;;;27.50;24.80;;;;;;;3.48;90.11;97246.69;106782;1282;22556;-81
2023/10/19 00:08:41;;;;;;;28.40;25.60;;;;;;;3.46;90.06;97250.63;106696;1282;23389;-81
2023/10/19 00:11:21;;;;;;;27.10;24.30;;;;;;;3.41;89.72;97255.65;106737;1282;22654;-82
2023/10/19 00:13:50;;;;;;;28.00;25.20;;;;;;;3.38;89.59;97253.30;106824;1282;22578;-82
2023/10/19 00:16:22;;;;;;;25.80;23.30;;;;;;;3.37;89.88;97255.60;106731;1282;25604;-81
2023/10/19 00:18:52;;;;;;;24.50;22.10;;;;;;;3.34;89.44;97257.80;106718;1282;23680;-82
2023/10/19 00:21:23;;;;;;;31.80;28.70;;;;;;;3.29;89.67;97255.39;106712;1282;25420;-82
2023/10/19 00:23:57;;;;;;;26.30;23.90;;;;;;;3.23;89.71;97255.66;106815;1282;25287;-82
2023/10/19 00:26:29;;;;;;;29.00;26.10;;;;;;;3.14;89.71;97255.02;106750;1282;24241;-82
2023/10/19 00:29:05;;;;;;;27.80;24.90;;;;;;;3.05;89.80;97248.41;106763;1282;25319;-82
2023/10/19 00:31:36;;;;;;;28.50;25.90;;;;;;;3.02;90.02;97234.73;106677;1282;22785;-82
2023/10/19 00:34:06;;;;;;;25.70;23.20;;;;;;;3.02;90.17;97232.67;106721;1282;22563;-83
2023/10/19 00:36:36;;;;;;;28.50;25.80;;;;;;;2.93;91.24;97224.40;106731;1282;22646;-82
2023/10/19 00:39:15;;;;;;;38.00;34.60;;;;;;;2.80;90.65;97220.14;106728;1282;25284;-82
2023/10/19 00:41:45;;;;;;;36.30;32.70;;;;;;;2.73;90.52;97214.23;106716;1282;24248;-83
2023/10/19 00:44:35;;;;;;;35.90;32.60;;;;;;;2.67;90.72;97210.07;106765;1282;25343;-81
2023/10/19 00:47:07;;;;;;;42.20;38.20;;;;;;;2.58;91.28;97204.31;106741;1282;22739;-81
2023/10/19 00:49:35;;;;;;;34.10;30.80;;;;;;;2.44;91.77;97196.79;106725;1282;22545;-83
2023/10/19 00:52:12;;;;;;;35.90;32.50;;;;;;;2.33;91.35;97195.13;106728;1282;25495;-83
2023/10/19 00:54:50;;;;;;;36.90;33.60;;;;;;;2.31;91.33;97186.30;106703;1282;25244;-82
2023/10/19 00:57:20;;;;;;;38.90;35.30;;;;;;;2.38;91.75;97179.14;106627;1282;25366;-82
2023/10/19 00:59:53;;;;;;;38.20;34.80;;;;;;;2.43;91.81;97178.91;106702;1282;25244;-82
2023/10/19 01:05:00;;;;;;;38.00;34.50;;;;;;;2.48;91.85;97177.29;107105;1282;22656;-82
2023/10/19 01:07:29;;;;;;;35.70;32.40;;;;;;;2.47;91.45;97179.26;106887;1282;22590;-82
2023/10/19 01:10:05;;;;;;;36.90;33.70;;;;;;;2.47;91.37;97174.09;107598;1282;22558;-82
2023/10/19 01:12:38;;;;;;;37.00;33.80;;;;;;;2.49;91.47;97162.29;107603;1260;23920;-82
2023/10/19 01:17:58;;;;;;;36.10;32.70;;;;;;;2.46;92.18;97156.59;106640;1282;24343;-81
2023/10/19 01:23:20;;;;;;;39.70;36.20;;;;;;;2.22;91.78;97153.36;106948;1282;24230;-81
2023/10/19 01:28:28;;;;;;;41.90;38.10;;;;;;;2.20;91.95;97147.77;106769;1282;24311;-81
2023/10/19 01:30:56;;;;;;;42.60;38.90;;;;;;;2.20;91.98;97144.49;106798;1282;22566;-81
2023/10/19 01:33:24;;;;;;;34.00;30.90;;;;;;;2.19;91.71;97148.80;106752;1282;22629;-81
2023/10/19 01:36:11;;;;;;;36.80;33.60;;;;;;;2.11;92.66;97139.62;106742;1282;24243;-82
2023/10/19 01:38:40;;;;;;;36.60;33.20;;;;;;;1.97;93.20;97135.59;106836;1282;22534;-80
2023/10/19 01:41:18;;;;;;;38.40;35.00;;;;;;;1.93;92.98;97127.73;106720;1282;25294;-81
2023/10/19 01:43:48;;;;;;;38.30;34.90;;;;;;;1.97;93.02;97126.95;106830;1282;22652;-81
2023/10/19 01:48:55;;;;;;;36.80;33.20;;;;;;;2.10;93.07;97112.58;106843;1282;23232;-80
2023/10/19 01:51:26;;;;;;;34.70;31.40;;;;;;;2.14;93.20;97111.09;106679;1282;22653;-81
2023/10/19 01:54:00;;;;;;;52.60;47.80;;;;;;;2.17;93.40;97102.70;106707;1282;24343;-82
2023/10/19 01:56:29;;;;;;;45.80;41.80;;;;;;;2.17;93.40;97099.17;106787;1282;24216;-81
2023/10/19 01:58:58;;;;;;;38.90;35.40;;;;;;;2.20;93.36;97094.29;106764;1282;22576;-81
2023/10/19 02:03:58;;;;;;;30.30;27.40;;;;;;;2.38;93.97;97094.27;106643;1282;24366;-81
2023/10/19 02:06:36;;;;;;;61.20;56.30;;;;;;;2.45;93.62;97085.64;106547;1282;25410;-81
2023/10/19 02:11:58;;;;;;;37.20;33.80;;;;;;;2.53;94.08;97071.50;106903;1282;22584;-82
2023/10/19 02:14:31;;;;;;;44.00;40.10;;;;;;;2.56;94.37;97074.38;106837;1282;23916;-82
2023/10/19 02:17:03;;;;;;;38.30;34.80;;;;;;;2.58;94.26;97073.35;106551;1282;25478;-82
2023/10/19 02:19:32;;;;;;;34.90;31.50;;;;;;;2.63;94.17;97067.92;106667;1282;22532;-81
2023/10/19 02:22:11;;;;;;;37.20;33.60;;;;;;;2.66;94.16;97067.29;107238;1282;22607;-82
2023/10/19 02:24:39;;;;;;;38.10;34.80;;;;;;;2.65;93.93;97066.12;107250;1282;22975;-83
2023/10/19 02:27:09;;;;;;;33.30;30.10;;;;;;;2.60;94.23;97054.54;107618;1282;22496;-82
2023/10/19 02:29:46;;;;;;;43.00;39.00;;;;;;;2.56;93.96;97055.70;107295;1282;24062;-83
2023/10/19 02:32:17;;;;;;;35.50;32.20;;;;;;;2.51;93.95;97058.47;107009;1282;23873;-82
2023/10/19 02:34:45;;;;;;;31.90;28.80;;;;;;;2.47;94.01;97053.69;106505;1282;26289;-82
2023/10/19 02:37:14;;;;;;;36.10;32.80;;;;;;;2.47;94.17;97047.53;106744;1282;25403;-81
2023/10/19 02:39:43;;;;;;;44.30;40.40;;;;;;;2.48;94.29;97042.36;106655;1282;24251;-81
2023/10/19 02:42:11;;;;;;;37.60;34.30;;;;;;;2.46;94.12;97037.15;106781;1282;24343;-81
2023/10/19 02:44:39;;;;;;;37.50;34.30;;;;;;;2.45;94.08;97038.16;106587;1282;24367;-82
2023/10/19 02:47:08;;;;;;;34.20;31.10;;;;;;;2.40;94.06;97030.72;106539;1282;25243;-81
2023/10/19 02:49:39;;;;;;;32.90;31.00;;;;;;;2.31;93.96;97022.75;106886;1282;23146;-82
2023/10/19 02:52:07;;;;;;;33.80;30.50;;;;;;;2.26;94.02;97014.52;106638;1282;22712;-82
2023/10/19 02:54:36;;;;;;;40.70;36.80;;;;;;;2.26;94.37;97009.52;107544;1282;22586;-80
2023/10/19 02:57:06;;;;;;;36.20;33.00;;;;;;;2.21;95.34;97004.41;109725;1282;22549;-80
2023/10/19 02:59:35;;;;;;;34.20;31.10;;;;;;;2.14;95.31;97001.77;106560;1282;22545;-82
2023/10/19 03:02:15;;;;;;;40.10;36.40;;;;;;;2.14;95.37;97002.49;106681;1260;22541;-82
2023/10/19 03:04:45;;;;;;;35.80;32.70;;;;;;;2.14;95.04;96995.43;106731;1282;22547;-81
2023/10/19 03:07:13;;;;;;;32.20;29.10;;;;;;;2.11;94.76;96988.84;106686;1282;24350;-82
2023/10/19 03:09:54;;;;;;;35.80;32.50;;;;;;;2.09;94.89;96989.42;106811;1282;23922;-82
2023/10/19 03:12:26;;;;;;;32.80;29.60;;;;;;;2.12;95.02;96990.80;106755;1282;25447;-82
2023/10/19 03:14:54;;;;;;;38.80;35.20;;;;;;;2.18;95.10;96977.98;106805;1282;22777;-82
2023/10/19 03:17:25;;;;;;;37.60;34.20;;;;;;;2.25;95.18;96966.34;106770;1282;25193;-82
2023/10/19 03:19:55;;;;;;;41.40;37.60;;;;;;;2.30;95.39;96960.02;106812;1282;23016;-81
2023/10/19 03:22:24;;;;;;;37.70;34.40;;;;;;;2.33;95.75;96956.03;106800;1282;23791;-81
2023/10/19 03:25:43;;;;;;;41.20;37.20;;;;;;;2.26;95.79;96949.92;106799;1282;25555;-81
2023/10/19 03:27:48;;;;;;;;;;;;;;;2.29;95.53;96946.41;106800;1282;22518;-81
2023/10/19 03:30:18;;;;;;;32.80;29.70;;;;;;;2.34;95.65;96939.32;106748;1282;24023;-81
2023/10/19 03:32:46;;;;;;;33.80;30.40;;;;;;;2.41;95.62;96937.83;106794;1282;25366;-81
2023/10/19 03:35:15;;;;;;;36.60;33.20;;;;;;;2.46;95.88;96940.73;106797;1282;22688;-81
2023/10/19 03:37:47;;;;;;;35.00;31.70;;;;;;;2.53;97.12;96937.48;106611;1282;22554;-81
2023/10/19 03:40:25;;;;;;;36.10;32.60;;;;;;;2.58;96.82;96931.61;106695;1282;22541;-81
2023/10/19 03:42:55;;;;;;;30.80;27.20;;;;;;;2.68;97.34;96933.02;106680;1282;23248;-81
2023/10/19 03:45:25;;;;;;;29.60;26.20;;;;;;;2.81;97.28;96930.78;107642;1282;22837;-81
2023/10/19 03:47:55;;;;;;;29.70;26.90;;;;;;;2.95;97.15;96926.14;106794;1282;25348;-81
2023/10/19 03:50:25;;;;;;;31.50;27.00;;;;;;;3.06;97.14;96920.98;106911;1282;24394;-81
2023/10/19 03:52:53;;;;;;;41.50;37.60;;;;;;;3.15;97.18;96911.63;106820;1282;22566;-82
2023/10/19 03:55:23;;;;;;;34.10;30.90;;;;;;;3.22;97.01;96906.23;106845;1282;22538;-82
2023/10/19 03:57:54;;;;;;;28.60;25.70;;;;;;;3.31;96.87;96904.14;107041;1282;22806;-80
2023/10/19 04:00:28;;;;;;;28.80;25.70;;;;;;;3.43;96.85;96901.19;106801;1282;22739;-82
2023/10/19 04:02:58;;;;;;;29.20;26.40;;;;;;;3.54;96.96;96908.83;106640;1282;25561;-82
2023/10/19 04:05:37;;;;;;;29.60;26.70;;;;;;;3.63;97.02;96911.75;106778;1282;22688;-82
2023/10/19 04:08:20;;;;;;;32.30;29.00;;;;;;;3.69;97.30;96914.11;106752;1263;24357;-81
2023/10/19 04:11:08;;;;;;;31.30;28.20;;;;;;;3.74;97.08;96912.25;106745;1282;25319;-82
2023/10/19 04:13:36;;;;;;;33.30;29.90;;;;;;;3.79;97.07;96917.54;106760;1282;22567;-82
2023/10/19 04:16:10;;;;;;;30.50;26.80;;;;;;;3.84;97.19;96910.04;106842;1282;22548;-82
2023/10/19 04:18:43;;;;;;;29.70;26.90;;;;;;;3.93;97.29;96897.08;106656;1282;22527;-82
2023/10/19 04:21:11;;;;;;;31.10;28.10;;;;;;;4.00;97.32;96896.05;106790;1282;22535;-82
2023/10/19 04:23:39;;;;;;;30.60;27.80;;;;;;;4.03;97.23;96897.52;106675;1282;24218;-82
2023/10/19 04:26:10;;;;;;;32.00;28.50;;;;;;;4.05;97.31;96890.77;106803;1282;24209;-82
2023/10/19 04:28:50;;;;;;;34.00;30.80;;;;;;;4.06;97.34;96882.13;106844;1282;25514;-81
2023/10/19 04:31:18;;;;;;;33.20;30.10;;;;;;;4.07;97.02;96874.92;106758;1282;22535;-82
2023/10/19 04:33:47;;;;;;;32.50;28.40;;;;;;;4.09;96.94;96870.33;106850;1282;22551;-82
2023/10/19 04:36:19;;;;;;;28.10;25.30;;;;;;;4.13;97.07;96864.15;106633;1282;25253;-83
2023/10/19 04:38:47;;;;;;;33.90;26.20;;;;;;;4.18;97.64;96863.67;106682;1282;22789;-81
2023/10/19 04:41:15;;;;;;;28.80;26.00;;;;;;;4.23;97.44;96869.23;106798;1282;22625;-82
2023/10/19 04:43:49;;;;;;;30.90;27.70;;;;;;;4.25;97.44;96867.77;106797;1282;25423;-82
2023/10/19 04:46:18;;;;;;;28.90;25.90;;;;;;;4.27;97.44;96870.25;106850;1276;24244;-82
2023/10/19 04:48:49;;;;;;;36.10;27.70;;;;;;;4.27;97.29;96869.45;106746;1282;22556;-84
2023/10/19 04:51:17;;;;;;;27.70;24.80;;;;;;;4.30;97.33;96866.11;106721;1282;22538;-85
2023/10/19 04:53:45;;;;;;;27.70;24.80;;;;;;;4.35;97.45;96854.38;106719;1282;26530;-84
2023/10/19 04:56:14;;;;;;;28.00;25.30;;;;;;;4.38;97.30;96852.78;106818;1259;23934;-84
2023/10/19 04:58:42;;;;;;;27.30;24.60;;;;;;;4.39;97.10;96844.77;106860;1275;25384;-84
2023/10/19 05:01:11;;;;;;;27.10;24.00;;;;;;;4.40;97.17;96840.50;106638;1282;25295;-86
2023/10/19 05:03:41;;;;;;;27.50;24.80;;;;;;;4.38;97.25;96838.91;106699;1281;24195;-84
2023/10/19 05:06:12;;;;;;;27.10;24.50;;;;;;;4.38;97.34;96844.14;106767;1278;24290;-82
2023/10/19 05:08:40;;;;;;;26.20;23.60;;;;;;;4.41;97.34;96841.88;106771;1282;22537;-81
2023/10/19 05:11:08;;;;;;;30.10;27.00;;;;;;;4.46;97.19;96836.91;106748;1282;25684;-81
2023/10/19 05:13:36;;;;;;;27.20;24.50;;;;;;;4.51;97.24;96836.11;106549;1281;22559;-82
2023/10/19 05:16:04;;;;;;;32.80;29.70;;;;;;;4.53;97.03;96835.76;106742;1282;22649;-83
2023/10/19 05:18:33;;;;;;;32.90;29.80;;;;;;;4.54;97.21;96829.23;106722;1282;24263;-86
2023/10/19 05:21:02;;;;;;;27.40;24.70;;;;;;;4.56;97.50;96824.41;106775;1282;25495;-83
2023/10/19 05:23:30;;;;;;;23.90;21.30;;;;;;;4.58;97.50;96823.32;106927;1282;22677;-89
2023/10/19 05:26:03;;;;;;;25.10;22.60;;;;;;;4.64;97.11;96829.77;106847;1282;23939;-83
2023/10/19 05:28:31;;;;;;;22.10;19.80;;;;;;;4.73;97.62;96826.07;106553;1282;26888;-87
2023/10/19 05:30:59;;;;;;;28.90;26.00;;;;;;;4.82;97.51;96822.86;106751;1282;23005;-87
2023/10/19 05:33:29;;;;;;;26.30;23.80;;;;;;;4.86;97.22;96816.66;106961;1282;25483;-87
2023/10/19 05:35:58;;;;;;;25.80;23.10;;;;;;;4.91;97.30;96809.77;106964;1282;22559;-87
2023/10/19 05:38:27;;;;;;;23.60;21.20;;;;;;;4.92;97.33;96805.67;106997;1282;23551;-86
2023/10/19 05:40:58;;;;;;;25.90;23.30;;;;;;;4.94;97.07;96800.37;109511;1282;22488;-85
2023/10/19 05:43:28;;;;;;;23.70;21.30;;;;;;;4.95;96.91;96795.51;108465;1282;22540;-86
2023/10/19 05:45:56;;;;;;;21.70;19.50;;;;;;;4.97;96.95;96796.37;107271;1282;25834;-87
2023/10/19 05:48:25;;;;;;;24.60;20.60;;;;;;;4.94;96.87;96776.14;107143;1282;22559;-86
2023/10/19 05:50:53;;;;;;;25.70;19.30;;;;;;;5.16;96.91;96802.52;106788;1282;22604;-87
2023/10/19 05:53:22;;;;;;;21.50;19.30;;;;;;;5.24;97.05;96795.98;106924;1282;22499;-87
2023/10/19 05:55:50;;;;;;;20.90;19.00;;;;;;;5.31;96.83;96794.05;106835;1282;22530;-87
2023/10/19 05:58:20;;;;;;;21.20;18.90;;;;;;;5.35;96.51;96788.81;107821;1282;22567;-84
2023/10/19 06:00:51;;;;;;;23.30;20.90;;;;;;;5.39;96.48;96784.16;109140;1282;22535;-86
2023/10/19 06:03:20;;;;;;;31.40;28.40;;;;;;;5.41;96.25;96794.37;108812;1258;22557;-85
2023/10/19 06:05:48;;;;;;;28.60;25.50;;;;;;;5.43;96.11;96801.50;109561;1282;22950;-85
2023/10/19 06:08:16;;;;;;;34.40;31.20;;;;;;;5.48;96.01;96794.90;106781;1282;22634;-87
2023/10/19 06:10:51;;;;;;;30.20;25.00;;;;;;;5.55;95.96;96795.42;106876;1282;23285;-86
2023/10/19 06:13:21;;;;;;;28.00;25.10;;;;;;;5.59;95.74;96795.79;106853;1282;25368;-86
2023/10/19 06:15:51;;;;;;;37.00;27.80;;;;;;;5.60;95.93;96795.70;106769;1282;26731;-85
2023/10/19 06:18:20;;;;;;;33.10;28.20;;;;;;;5.60;95.84;96792.09;106620;1282;24233;-86
2023/10/19 06:20:50;;;;;;;30.90;26.80;;;;;;;5.59;95.76;96783.98;106792;1282;22527;-86
2023/10/19 06:23:19;;;;;;;37.60;29.60;;;;;;;5.60;95.72;96779.14;106907;1282;25311;-87
2023/10/19 06:25:47;;;;;;;31.10;25.80;;;;;;;5.61;95.75;96775.55;106629;1282;25738;-86
2023/10/19 06:28:15;;;;;;;31.20;26.60;;;;;;;5.63;95.64;96771.45;106784;1282;22531;-86
2023/10/19 06:30:43;;;;;;;29.80;26.60;;;;;;;5.67;95.48;96768.11;106795;1282;22539;-85
2023/10/19 06:33:11;;;;;;;28.00;24.80;;;;;;;5.71;95.51;96764.14;106775;1282;24106;-85
2023/10/19 06:35:40;;;;;;;32.80;27.60;;;;;;;5.73;95.53;96761.33;106826;1260;24216;-85
2023/10/19 06:38:09;;;;;;;28.70;23.90;;;;;;;5.72;95.48;96755.31;107130;1282;25348;-86
2023/10/19 06:40:37;;;;;;;23.00;20.70;;;;;;;5.72;95.29;96755.15;106789;1282;24256;-86
2023/10/19 06:43:05;;;;;;;24.70;20.10;;;;;;;5.72;95.45;96751.57;106766;1281;24843;-85
2023/10/19 06:45:33;;;;;;;20.30;18.10;;;;;;;5.72;94.97;96755.63;106702;1282;24248;-86
2023/10/19 06:48:03;;;;;;;19.40;17.30;;;;;;;5.73;94.80;96754.17;106660;1282;25358;-87
2023/10/19 06:50:33;;;;;;;20.30;17.80;;;;;;;5.79;94.74;96748.44;106671;1282;22771;-86
2023/10/19 06:53:03;;;;;;;24.20;21.80;;;;;;;5.85;94.73;96743.20;106592;1282;24252;-87
2023/10/19 06:55:32;;;;;;;24.90;22.50;;;;;;;5.88;94.53;96737.70;106710;1282;22616;-87
2023/10/19 06:58:02;;;;;;;28.20;25.30;;;;;;;5.87;94.43;96734.50;106764;1282;22612;-87
2023/10/19 07:00:30;;;;;;;31.90;27.10;;;;;;;5.85;94.26;96732.89;106665;1282;22534;-86
2023/10/19 07:03:02;;;;;;;30.90;26.90;;;;;;;5.81;94.06;96731.09;106591;1282;22590;-86
2023/10/19 07:05:30;;;;;;;29.90;27.00;;;;;;;5.78;93.88;96732.06;106612;1282;24254;-86
2023/10/19 07:07:59;;;;;;;29.90;26.80;;;;;;;5.76;93.56;96724.67;106616;1282;22538;-87
2023/10/19 07:10:28;;;;;;;24.50;22.10;;;;;;;5.74;93.79;96723.81;106713;1282;22550;-86
2023/10/19 07:12:57;;;;;;;26.80;23.90;;;;;;;5.75;93.62;96721.33;106521;1282;25429;-87
2023/10/19 07:15:26;;;;;;;24.00;21.50;;;;;;;5.77;93.55;96725.35;106709;1282;22540;-86
2023/10/19 07:17:55;;;;;;;22.70;20.40;;;;;;;5.77;93.66;96718.46;106698;1282;24329;-88
2023/10/19 07:22:56;;;;;;;22.60;20.30;;;;;;;5.79;93.04;96701.08;107030;1282;22739;-87
2023/10/19 07:25:25;;;;;;;20.80;18.60;;;;;;;5.80;92.97;96695.66;107147;1282;22612;-86
2023/10/19 07:27:54;;;;;;;19.70;17.60;;;;;;;5.86;93.24;96697.58;106713;1282;22564;-86
2023/10/19 07:30:26;;;;;;;21.40;19.40;;;;;;;5.95;92.82;96698.35;106917;1282;24443;-85
2023/10/19 07:32:58;;;;;;;20.60;18.60;;;;;;;6.05;92.91;96693.86;106843;1282;22663;-85
2023/10/19 07:35:31;;;;;;;21.80;18.90;;;;;;;6.16;92.91;96690.27;108062;1282;22617;-86
2023/10/19 07:38:14;;;;;;;19.30;17.30;;;;;;;6.24;92.79;96685.77;109620;1282;22609;-85
2023/10/19 07:40:43;;;;;;;18.80;17.00;;;;;;;6.27;92.34;96691.16;107568;1282;22502;-87
2023/10/19 07:43:12;;;;;;;18.40;16.60;;;;;;;6.32;92.15;96697.64;106681;1282;25373;-87
2023/10/19 07:45:40;;;;;;;16.20;14.70;;;;;;;6.37;92.07;96684.42;106853;1282;22726;-87
2023/10/19 07:48:10;;;;;;;18.30;16.50;;;;;;;6.42;91.96;96682.70;106790;1278;22575;-87
2023/10/19 07:50:42;;;;;;;17.40;14.20;;;;;;;6.50;91.82;96674.55;106796;1282;26698;-87
2023/10/19 07:53:10;;;;;;;16.60;14.00;;;;;;;6.65;91.49;96676.27;106830;1282;25439;-86
2023/10/19 07:55:39;;;;;;;15.10;13.60;;;;;;;6.82;91.72;96679.43;106676;1282;22795;-86
2023/10/19 07:58:07;;;;;;;22.90;20.60;;;;;;;7.01;91.77;96668.92;106601;1282;22779;-87
2023/10/19 08:00:36;;;;;;;21.10;15.20;;;;;;;7.15;91.58;96665.70;106752;1282;25288;-87
2023/10/19 08:03:05;;;;;;;17.90;15.90;;;;;;;7.28;91.32;96664.35;106545;1282;25293;-87
2023/10/19 08:05:36;;;;;;;17.70;15.90;;;;;;;7.35;90.87;96661.91;106642;1282;25423;-87
2023/10/19 08:08:05;;;;;;;16.90;15.20;;;;;;;7.40;90.14;96651.81;107201;1282;22660;-86
2023/10/19 08:10:34;;;;;;;20.00;17.10;;;;;;;7.46;89.85;96640.83;106988;1282;22566;-86
2023/10/19 08:13:04;;;;;;;20.40;17.50;;;;;;;7.53;88.74;96644.52;106793;1282;22539;-86
2023/10/19 08:15:32;;;;;;;25.20;18.10;;;;;;;7.62;89.37;96652.24;106815;1278;25505;-87
2023/10/19 08:18:00;;;;;;;22.70;18.30;;;;;;;7.74;89.75;96653.99;106754;1282;26615;-87
2023/10/19 08:20:31;;;;;;;19.60;17.60;;;;;;;7.84;89.03;96656.90;106774;1282;22657;-87
2023/10/19 08:23:01;;;;;;;16.60;15.10;;;;;;;7.89;88.59;96650.31;106774;1282;25242;-87
2023/10/19 08:25:30;;;;;;;17.90;16.00;;;;;;;7.90;87.77;96646.91;107039;1275;25382;-87
2023/10/19 08:28:18;;;;;;;16.30;14.70;;;;;;;7.93;87.55;96650.64;106682;1282;22570;-87
2023/10/19 08:30:56;;;;;;;18.50;16.30;;;;;;;7.96;88.20;96654.69;106722;1282;22611;-87
2023/10/19 08:33:26;;;;;;;17.60;15.90;;;;;;;7.97;86.83;96650.84;106612;1282;22537;-86
2023/10/19 08:35:56;;;;;;;16.70;14.80;;;;;;;8.01;86.06;96639.42;106716;1282;25407;-87
2023/10/19 08:38:25;;;;;;;18.50;16.50;;;;;;;8.06;87.07;96630.79;106785;1282;25220;-87
2023/10/19 08:40:53;;;;;;;17.10;15.30;;;;;;;8.15;87.32;96625.92;106608;1281;22965;-87
2023/10/19 08:43:24;;;;;;;20.10;15.30;;;;;;;8.22;87.02;96623.99;106786;1282;24109;-86
2023/10/19 08:45:54;;;;;;;18.30;15.40;;;;;;;8.25;86.78;96618.31;106570;1282;22675;-87
2023/10/19 08:48:23;;;;;;;17.40;15.20;;;;;;;8.29;86.57;96622.07;106663;1281;22661;-86
2023/10/19 08:50:52;;;;;;;17.20;15.50;;;;;;;8.31;86.40;96614.81;106774;1262;26565;-87
2023/10/19 08:53:22;;;;;;;18.10;14.90;;;;;;;8.34;86.07;96609.35;106830;1282;22540;-87
2023/10/19 08:55:50;;;;;;;18.20;16.40;;;;;;;8.34;85.74;96611.38;106850;1282;22541;-86
2023/10/19 08:58:22;;;;;;;18.70;16.80;;;;;;;8.32;85.30;96621.29;106864;1275;24209;-87
2023/10/19 09:00:54;;;;;;;19.40;17.50;;;;;;;8.29;84.95;96622.02;106662;1282;25497;-87
2023/10/19 09:03:25;;;;;;;19.50;17.10;;;;;;;8.28;85.52;96621.29;107137;1282;25320;-87
2023/10/19 09:05:56;;;;;;;19.20;17.20;;;;;;;8.27;85.18;96616.86;107053;1282;25590;-87
2023/10/19 09:08:24;;;;;;;18.20;16.50;;;;;;;8.26;84.50;96611.96;106689;1281;22537;-87
2023/10/19 09:10:53;;;;;;;19.30;17.20;;;;;;;8.25;84.57;96614.33;107594;1282;22645;-86
2023/10/19 09:13:23;;;;;;;18.50;16.80;;;;;;;8.26;85.13;96621.27;106649;1282;22636;-86
2023/10/19 09:15:53;;;;;;;19.70;17.70;;;;;;;8.28;84.79;96613.51;106639;1282;22675;-85
2023/10/19 09:18:27;;;;;;;18.20;16.20;;;;;;;8.32;85.21;96607.48;106655;1282;25411;-86
2023/10/19 09:21:07;;;;;;;17.90;16.00;;;;;;;8.41;85.25;96608.16;106847;1282;22538;-86
2023/10/19 09:23:36;;;;;;;16.70;14.60;;;;;;;8.50;85.05;96603.58;106962;1282;22636;-85
2023/10/19 09:26:07;;;;;;;17.20;15.50;;;;;;;8.60;85.19;96603.10;106928;1282;23611;-85
2023/10/19 09:28:37;;;;;;;19.10;17.10;;;;;;;8.64;85.26;96591.23;106765;1281;22526;-85
2023/10/19 09:31:10;;;;;;;20.70;18.50;;;;;;;8.66;85.18;96587.01;107631;1278;22553;-83
2023/10/19 09:34:31;;;;;;;24.70;17.70;;;;;;;8.67;85.07;96587.83;108859;1282;22560;-84
2023/10/19 09:37:04;;;;;;;21.90;19.50;;;;;;;8.70;85.10;96586.66;109655;1282;22771;-84
2023/10/19 09:39:35;;;;;;;21.30;19.20;;;;;;;8.74;85.05;96585.83;106844;1282;26612;-85
2023/10/19 09:42:16;;;;;;;20.30;18.10;;;;;;;8.76;84.71;96581.69;106682;1282;25532;-84
2023/10/19 09:44:48;;;;;;;21.60;19.40;;;;;;;8.81;84.79;96577.77;106625;1282;22642;-85
2023/10/19 09:47:26;;;;;;;26.80;21.70;;;;;;;8.85;84.64;96565.34;106544;1282;203713;-85
2023/10/19 09:49:55;;;;;;;24.00;18.00;;;;;;;8.89;84.15;96556.98;106679;1282;25492;-86
2023/10/19 09:52:24;;;;;;;20.70;17.80;;;;;;;8.89;83.68;96558.45;106591;1282;22669;-85
2023/10/19 09:54:59;;;;;;;21.50;19.30;;;;;;;8.90;84.23;96562.31;106768;1282;25223;-85
2023/10/19 09:57:43;;;;;;;20.30;18.20;;;;;;;8.90;83.59;96554.33;106757;1282;22622;-85
2023/10/19 10:00:15;;;;;;;19.00;17.10;;;;;;;8.89;83.77;96550.28;106741;1282;23272;-85
2023/10/19 10:02:45;;;;;;;18.50;16.10;;;;;;;8.88;84.22;96544.40;106725;1282;25284;-86
2023/10/19 10:05:42;;;;;;;18.20;16.20;;;;;;;8.90;83.66;96541.82;106676;1282;25610;-85
2023/10/19 10:08:22;;;;;;;18.60;16.00;;;;;;;8.90;84.03;96541.81;106677;1282;24241;-86
2023/10/19 10:10:51;;;;;;;21.70;18.00;;;;;;;8.94;84.34;96544.68;106637;1282;22616;-85
2023/10/19 10:13:26;;;;;;;17.90;16.10;;;;;;;9.00;84.84;96552.04;106642;1282;22656;-85
2023/10/19 10:15:55;;;;;;;19.60;17.80;;;;;;;9.05;84.71;96551.23;106828;1282;25381;-85
2023/10/19 10:18:25;;;;;;;20.60;17.60;;;;;;;9.06;84.49;96555.61;106809;1282;25313;-85
2023/10/19 10:21:12;;;;;;;23.80;21.30;;;;;;;9.11;84.63;96549.35;106812;1282;22635;-86
2023/10/19 10:23:45;;;;;;;31.50;25.10;;;;;;;9.17;84.88;96548.74;106764;1282;24239;-85
2023/10/19 10:26:18;;;;;;;29.10;26.20;;;;;;;9.20;84.69;96549.95;106729;1282;22598;-85
2023/10/19 10:28:49;;;;;;;26.20;23.50;;;;;;;9.23;84.57;96540.48;106762;1282;23499;-85
2023/10/19 10:31:22;;;;;;;24.70;21.80;;;;;;;9.26;84.86;96534.52;106492;1282;24858;-86
2023/10/19 10:33:54;;;;;;;23.30;21.00;;;;;;;9.31;84.92;96529.73;106564;1282;22547;-85
2023/10/19 10:36:23;;;;;;;21.70;19.30;;;;;;;9.37;85.10;96525.50;106803;1282;24209;-85
2023/10/19 10:38:51;;;;;;;22.40;20.10;;;;;;;9.43;85.18;96517.48;106756;1282;22543;-85
2023/10/19 10:41:21;;;;;;;21.00;19.00;;;;;;;9.50;85.66;96515.43;106926;1282;24302;-86
2023/10/19 10:43:54;;;;;;;23.10;20.90;;;;;;;9.52;85.59;96505.43;106834;1282;26523;-85
2023/10/19 10:46:28;;;;;;;21.20;19.30;;;;;;;9.58;86.19;96498.27;106663;1282;24215;-84
2023/10/19 10:48:57;;;;;;;21.00;19.00;;;;;;;9.65;86.26;96491.09;106806;1282;24282;-84
2023/10/19 10:51:28;;;;;;;21.60;19.40;;;;;;;9.67;86.03;96490.34;106791;1282;22569;-83
2023/10/19 10:53:58;;;;;;;21.30;19.20;;;;;;;9.70;86.20;96483.20;106858;1282;25298;-84
2023/10/19 10:56:28;;;;;;;35.60;31.70;;;;;;;9.74;86.38;96479.63;106819;1282;23884;-84
2023/10/19 10:58:56;;;;;;;34.80;31.40;;;;;;;9.82;86.65;96470.07;106636;1282;22668;-84
2023/10/19 11:01:32;;;;;;;38.70;34.60;;;;;;;9.96;86.71;96467.48;106662;1282;22546;-84
2023/10/19 11:04:10;;;;;;;47.60;43.60;;;;;;;10.07;86.96;96462.27;106731;1282;23877;-84
2023/10/19 11:06:55;;;;;;;26.20;23.50;;;;;;;10.09;87.03;96456.11;106658;1282;23929;-83
2023/10/19 11:09:24;;;;;;;25.60;21.80;;;;;;;10.07;87.19;96449.90;106811;1282;22557;-83
2023/10/19 11:11:52;;;;;;;22.00;19.70;;;;;;;10.11;87.38;96444.48;106763;1282;22776;-84
2023/10/19 11:14:23;;;;;;;21.30;19.20;;;;;;;10.12;87.19;96441.55;106726;1282;22560;-84
2023/10/19 11:16:52;;;;;;;25.00;21.30;;;;;;;10.09;87.27;96440.41;106814;1282;22636;-85
2023/10/19 11:19:21;;;;;;;22.40;19.60;;;;;;;10.09;87.30;96430.20;106699;1282;22531;-85
2023/10/19 11:21:54;;;;;;;22.60;19.20;;;;;;;10.12;87.44;96422.62;106797;1282;25437;-86
2023/10/19 11:24:30;;;;;;;20.60;18.50;;;;;;;10.14;87.92;96421.46;106755;1282;25298;-85
2023/10/19 11:27:00;;;;;;;26.90;24.10;;;;;;;10.19;87.98;96418.78;106950;1282;25627;-86
2023/10/19 11:29:29;;;;;;;23.30;20.80;;;;;;;10.26;88.13;96416.80;109391;1282;22566;-83
2023/10/19 11:32:02;;;;;;;24.50;22.20;;;;;;;10.30;88.39;96413.35;107102;1282;22668;-85
2023/10/19 11:34:30;;;;;;;28.80;25.60;;;;;;;10.31;88.30;96406.81;106703;1282;25288;-84
2023/10/19 11:36:59;;;;;;;25.30;23.00;;;;;;;10.30;88.44;96408.25;106676;1281;25401;-85
2023/10/19 11:39:28;;;;;;;24.30;21.90;;;;;;;10.32;88.58;96400.25;106691;1282;22539;-85
2023/10/19 11:41:57;;;;;;;24.10;21.90;;;;;;;10.35;88.65;96397.29;106717;1282;26526;-85
2023/10/19 11:44:25;;;;;;;26.90;24.30;;;;;;;10.43;88.70;96390.99;106719;1282;25419;-85
2023/10/19 11:46:53;;;;;;;29.10;26.20;;;;;;;10.47;88.80;96387.52;106707;1282;22530;-85
2023/10/19 11:49:22;;;;;;;30.20;25.70;;;;;;;10.49;88.92;96385.80;106805;1282;22549;-84
2023/10/19 11:51:53;;;;;;;62.00;56.60;;;;;;;10.49;88.97;96383.73;106775;1282;22602;-84
2023/10/19 11:54:21;;;;;;;43.00;38.90;;;;;;;10.50;89.18;96384.08;106768;1282;22543;-84
2023/10/19 11:56:49;;;;;;;27.10;24.40;;;;;;;10.47;89.37;96376.89;106763;1282;25380;-84